Time;durP1;ratioP1;P1;durP2;ratioP2;P2;SDS_P1;SDS_P2;PMS_P1;PMS_P2;Temp;Humidity;BMP_temperature;BMP_pressure;BME280_temperature;BME280_humidity;BME280_pressure;Samples;Min_cycle;Max_cycle;Signal;HPM_P1;HPM_P2
2023/04/07 00:03:20;;;;;;;23.77;19.55;;;7.30;99.90;;;;;;7278330;32;20454;-55
2023/04/07 00:07:22;;;;;;;23.17;19.08;;;7.30;99.90;;;;;;7284492;32;20223;-55
2023/04/07 00:11:24;;;;;;;24.77;19.00;;;7.30;99.90;;;;;;7275034;32;20919;-55
2023/04/07 00:15:26;;;;;;;24.83;19.92;;;7.30;99.90;;;;;;7283790;32;21308;-55
2023/04/07 00:19:27;;;;;;;28.70;21.35;;;7.40;99.90;;;;;;7284884;32;20630;-55
2023/04/07 00:23:30;;;;;;;28.92;22.58;;;7.30;99.90;;;;;;7291391;32;20227;-55
2023/04/07 00:27:32;;;;;;;28.25;22.23;;;7.30;99.90;;;;;;7293003;32;20502;-55
2023/04/07 00:31:34;;;;;;;28.08;22.98;;;7.50;99.90;;;;;;7286427;32;20321;-54
2023/04/07 00:35:35;;;;;;;32.97;23.77;;;7.40;99.90;;;;;;7283120;32;20108;-54
2023/04/07 00:39:37;;;;;;;30.83;24.58;;;7.50;99.90;;;;;;7282702;32;20480;-54
2023/04/07 00:43:39;;;;;;;29.25;24.15;;;7.60;99.90;;;;;;7290139;32;20920;-54
2023/04/07 00:47:41;;;;;;;31.08;24.55;;;7.50;99.90;;;;;;7288982;32;20600;-55
2023/04/07 00:51:44;;;;;;;28.35;23.20;;;7.50;99.90;;;;;;7284881;32;20524;-54
2023/04/07 00:55:46;;;;;;;29.83;24.48;;;7.40;99.90;;;;;;7285456;32;20494;-55
2023/04/07 00:59:50;;;;;;;32.28;25.73;;;7.60;99.90;;;;;;7291801;32;20424;-55
2023/04/07 01:04:00;;;;;;;30.20;24.27;;;7.70;99.90;;;;;;7288107;32;20592;-55
2023/04/07 01:08:18;;;;;;;30.98;24.55;;;7.80;99.90;;;;;;7280951;32;20159;-55
2023/04/07 01:12:28;;;;;;;;;;;7.70;99.90;;;;;;7291787;32;20831;-55
2023/04/07 01:16:36;;;;;;;34.20;25.45;;;7.60;99.90;;;;;;7279930;32;20027;-55
2023/04/07 01:20:39;;;;;;;33.40;24.25;;;7.70;99.90;;;;;;7284492;32;20658;-55
2023/04/07 01:25:14;;;;;;;33.80;25.98;;;7.70;99.90;;;;;;7282281;32;20214;-54
2023/04/07 01:29:35;;;;;;;37.95;27.08;;;7.70;99.90;;;;;;7289241;32;20232;-55
2023/04/07 01:33:38;;;;;;;37.10;26.75;;;7.70;99.90;;;;;;7291086;32;20167;-55
2023/04/07 01:37:41;;;;;;;33.33;27.15;;;7.60;99.90;;;;;;7292837;32;20104;-55
2023/04/07 01:41:44;;;;;;;33.72;27.13;;;7.70;99.90;;;;;;7283693;32;20148;-54
2023/04/07 01:45:46;;;;;;;37.13;26.45;;;7.80;99.90;;;;;;7287573;32;20511;-55
2023/04/07 01:49:49;;;;;;;38.05;28.33;;;7.80;99.90;;;;;;7286695;32;20270;-54
2023/04/07 01:53:52;;;;;;;34.80;26.75;;;7.70;99.90;;;;;;7287423;32;20111;-54
2023/04/07 01:57:54;;;;;;;38.97;28.25;;;7.80;99.90;;;;;;7288973;32;20136;-54
2023/04/07 02:01:56;;;;;;;36.97;27.98;;;7.70;99.90;;;;;;7281576;32;20248;-54
2023/04/07 02:06:05;;;;;;;37.53;27.27;;;7.80;99.90;;;;;;7286098;32;20174;-55
2023/04/07 02:10:10;;;;;;;39.88;30.30;;;7.80;99.90;;;;;;7274876;32;20119;-55
2023/04/07 02:14:14;;;;;;;40.63;29.70;;;7.80;99.90;;;;;;7280800;32;20136;-55
2023/04/07 02:18:18;;;;;;;38.70;27.98;;;7.90;99.90;;;;;;7272160;32;20183;-55
2023/04/07 02:22:20;;;;;;;43.83;28.95;;;7.90;99.90;;;;;;7277086;32;20222;-54
2023/04/07 02:26:22;;;;;;;37.65;27.80;;;7.90;99.90;;;;;;7275801;32;20131;-54
2023/04/07 02:30:25;;;;;;;42.10;29.67;;;8.00;99.90;;;;;;7275563;32;20334;-55
2023/04/07 02:34:26;;;;;;;37.25;27.30;;;8.00;99.90;;;;;;7279555;32;20186;-54
2023/04/07 02:38:28;;;;;;;41.35;30.05;;;7.90;99.90;;;;;;7272757;32;20217;-55
2023/04/07 02:42:30;;;;;;;46.00;30.90;;;7.80;99.90;;;;;;7260846;32;20140;-55
2023/04/07 02:46:32;;;;;;;40.33;28.55;;;7.80;99.90;;;;;;7283362;32;20163;-54
2023/04/07 02:50:34;;;;;;;44.22;31.48;;;7.80;99.90;;;;;;7274527;32;20302;-54
2023/04/07 02:54:36;;;;;;;43.33;29.80;;;7.90;99.90;;;;;;7277575;32;20371;-55
2023/04/07 02:58:38;;;;;;;45.35;29.25;;;8.20;99.90;;;;;;7265423;32;20175;-54
2023/04/07 03:02:40;;;;;;;42.47;27.48;;;8.20;99.90;;;;;;7271921;32;20162;-54
2023/04/07 03:06:42;;;;;;;45.53;28.60;;;8.20;99.90;;;;;;7283017;32;20139;-54
2023/04/07 03:10:43;;;;;;;42.72;27.15;;;8.20;99.90;;;;;;7281412;32;20577;-55
2023/04/07 03:14:45;;;;;;;42.05;26.65;;;8.20;99.90;;;;;;7286929;32;20179;-54
2023/04/07 03:18:47;;;;;;;44.63;27.60;;;8.20;99.90;;;;;;7279864;32;20233;-55
2023/04/07 03:22:48;;;;;;;43.30;28.30;;;8.20;99.90;;;;;;7279784;32;20255;-54
2023/04/07 03:26:50;;;;;;;39.20;26.42;;;8.20;99.90;;;;;;7265602;32;20112;-54
2023/04/07 03:30:52;;;;;;;43.58;27.52;;;8.20;99.90;;;;;;7282975;32;20104;-55
2023/04/07 03:34:54;;;;;;;38.95;23.90;;;8.20;99.90;;;;;;7284588;32;20558;-56
2023/04/07 03:38:56;;;;;;;38.40;23.70;;;8.20;99.90;;;;;;7279204;32;20120;-55
2023/04/07 03:42:57;;;;;;;41.65;24.77;;;8.20;99.90;;;;;;7268786;32;20371;-54
2023/04/07 03:47:00;;;;;;;34.72;22.50;;;8.00;99.90;;;;;;7284599;32;20573;-55
2023/04/07 03:51:02;;;;;;;35.53;21.15;;;8.00;99.90;;;;;;7276919;32;20191;-55
2023/04/07 03:55:04;;;;;;;36.50;21.17;;;8.10;99.90;;;;;;7278495;32;20507;-55
2023/04/07 03:59:06;;;;;;;36.58;21.42;;;8.10;99.90;;;;;;7287642;32;20116;-55
2023/04/07 04:03:09;;;;;;;40.97;24.33;;;8.10;99.90;;;;;;7291311;32;20194;-55
2023/04/07 04:07:11;;;;;;;39.60;23.40;;;8.00;99.90;;;;;;7285431;32;20104;-55
2023/04/07 04:11:13;;;;;;;38.65;23.60;;;8.00;99.90;;;;;;7286474;32;20099;-55
2023/04/07 04:15:15;;;;;;;39.95;23.23;;;8.10;99.90;;;;;;7286872;32;20127;-55
2023/04/07 04:19:17;;;;;;;38.90;23.05;;;8.00;99.90;;;;;;7275597;32;20147;-54
2023/04/07 04:23:18;;;;;;;42.45;23.25;;;8.00;99.90;;;;;;7275687;32;20112;-55
2023/04/07 04:27:20;;;;;;;43.05;25.52;;;8.10;99.90;;;;;;7288783;32;20263;-55
2023/04/07 04:31:22;;;;;;;44.05;25.15;;;8.00;99.90;;;;;;7286032;32;20127;-55
2023/04/07 04:35:24;;;;;;;47.28;27.15;;;8.00;99.90;;;;;;7286967;32;20134;-55
2023/04/07 04:39:26;;;;;;;43.20;26.75;;;8.00;99.90;;;;;;7284061;32;20438;-55
2023/04/07 04:43:28;;;;;;;42.45;25.35;;;8.00;99.90;;;;;;7285950;32;20162;-55
2023/04/07 04:47:29;;;;;;;46.13;25.35;;;7.90;99.90;;;;;;7292023;32;20111;-55
2023/04/07 04:51:31;;;;;;;43.97;24.90;;;8.00;99.90;;;;;;7292306;32;20138;-55
2023/04/07 04:55:33;;;;;;;38.50;23.65;;;8.00;99.90;;;;;;7291025;32;20330;-54
2023/04/07 04:59:35;;;;;;;38.63;23.10;;;8.00;99.90;;;;;;7288415;32;20361;-55
2023/04/07 05:03:37;;;;;;;36.15;22.45;;;7.90;99.90;;;;;;7286741;32;20115;-55
2023/04/07 05:07:39;;;;;;;37.22;21.55;;;8.00;99.90;;;;;;7282712;32;20278;-55
2023/04/07 05:11:41;;;;;;;32.58;19.48;;;8.00;99.90;;;;;;7280058;32;20120;-55
2023/04/07 05:15:43;;;;;;;35.80;20.70;;;7.90;99.90;;;;;;7285182;32;20132;-55
2023/04/07 05:19:44;;;;;;;38.08;21.08;;;7.90;99.90;;;;;;7274886;32;20259;-54
2023/04/07 05:23:46;;;;;;;41.30;22.60;;;7.90;99.90;;;;;;7276945;32;20263;-54
2023/04/07 05:27:48;;;;;;;41.78;22.55;;;7.90;99.90;;;;;;7278825;32;20525;-55
2023/04/07 05:31:50;;;;;;;36.65;20.80;;;7.90;99.90;;;;;;7278377;32;20165;-55
2023/04/07 05:35:51;;;;;;;35.30;18.80;;;8.00;99.90;;;;;;7281321;32;20162;-55
2023/04/07 05:39:53;;;;;;;31.05;17.83;;;7.90;99.90;;;;;;7258756;32;20127;-54
2023/04/07 05:43:55;;;;;;;29.10;17.55;;;7.90;99.90;;;;;;7272982;32;20534;-54
2023/04/07 05:47:57;;;;;;;29.70;17.58;;;7.80;99.90;;;;;;7278034;32;20538;-54
2023/04/07 05:51:58;;;;;;;26.92;16.77;;;7.70;99.90;;;;;;7275019;32;20265;-57
2023/04/07 05:56:00;;;;;;;29.55;16.02;;;7.80;99.90;;;;;;7282391;32;20128;-54
2023/04/07 06:00:03;;;;;;;27.85;16.30;;;7.80;99.90;;;;;;7267744;32;20116;-54
2023/04/07 06:04:05;;;;;;;29.63;16.42;;;7.80;99.90;;;;;;7260350;32;20194;-54
2023/04/07 06:08:07;;;;;;;28.27;16.62;;;7.90;99.90;;;;;;7280705;32;20620;-54
2023/04/07 06:12:11;;;;;;;23.80;15.00;;;7.90;99.90;;;;;;7279498;32;20226;-54
2023/04/07 06:16:12;;;;;;;29.40;16.02;;;7.90;99.90;;;;;;7279649;32;20207;-54
2023/04/07 06:20:14;;;;;;;32.22;17.90;;;7.80;99.90;;;;;;7277690;32;20230;-53
2023/04/07 06:24:16;;;;;;;24.98;15.57;;;7.90;99.90;;;;;;7273410;32;20187;-54
2023/04/07 06:28:18;;;;;;;26.95;15.57;;;7.90;99.90;;;;;;7283288;32;20862;-54
2023/04/07 06:32:20;;;;;;;26.00;15.40;;;8.00;99.90;;;;;;7265396;32;20096;-55
2023/04/07 06:36:22;;;;;;;24.27;14.80;;;7.90;99.90;;;;;;7267497;32;20199;-55
2023/04/07 06:40:24;;;;;;;28.60;14.20;;;8.00;99.90;;;;;;7279529;32;20108;-56
2023/04/07 06:44:26;;;;;;;29.30;14.10;;;8.00;99.90;;;;;;7278316;32;20182;-56
2023/04/07 06:48:28;;;;;;;22.90;13.18;;;8.00;99.90;;;;;;7274571;32;20119;-56
2023/04/07 06:52:30;;;;;;;26.33;14.30;;;8.00;99.90;;;;;;7273168;32;20589;-55
2023/04/07 06:56:32;;;;;;;23.92;13.90;;;8.00;99.90;;;;;;7269108;32;20601;-56
2023/04/07 07:00:35;;;;;;;25.77;13.20;;;8.00;99.90;;;;;;7272438;32;20209;-56
2023/04/07 07:04:37;;;;;;;19.27;12.43;;;7.90;99.90;;;;;;7268122;32;20474;-55
2023/04/07 07:08:39;;;;;;;22.80;12.45;;;7.90;99.90;;;;;;7260272;32;20233;-57
2023/04/07 07:12:41;;;;;;;19.37;12.50;;;8.00;99.90;;;;;;7283317;32;20128;-56
2023/04/07 07:16:43;;;;;;;19.62;11.27;;;8.00;99.90;;;;;;7281072;32;20503;-56
2023/04/07 07:20:45;;;;;;;22.92;11.27;;;8.10;99.90;;;;;;7273339;32;20196;-57
2023/04/07 07:24:47;;;;;;;21.95;11.10;;;8.10;99.90;;;;;;7276808;32;20115;-55
2023/04/07 07:28:48;;;;;;;20.05;11.57;;;8.20;99.90;;;;;;7266524;32;20262;-57
2023/04/07 07:32:52;;;;;;;18.95;12.18;;;8.30;99.90;;;;;;7278667;32;20124;-56
2023/04/07 07:36:54;;;;;;;21.55;11.90;;;8.30;99.90;;;;;;7281500;32;20518;-56
2023/04/07 07:40:57;;;;;;;19.98;12.18;;;8.30;99.90;;;;;;7275522;32;20210;-55
2023/04/07 07:44:59;;;;;;;21.73;11.85;;;8.30;99.90;;;;;;7284788;32;20238;-56
2023/04/07 07:49:01;;;;;;;17.50;12.13;;;8.40;99.90;;;;;;7265183;32;20826;-54
2023/04/07 07:53:02;;;;;;;17.35;11.02;;;8.50;99.90;;;;;;7282400;32;20341;-55
2023/04/07 07:57:04;;;;;;;19.58;12.37;;;8.60;99.90;;;;;;7276979;32;20119;-55
2023/04/07 08:01:06;;;;;;;21.27;12.10;;;8.60;99.90;;;;;;7282268;32;20115;-55
2023/04/07 08:05:08;;;;;;;19.23;12.60;;;8.50;99.90;;;;;;7281310;32;20211;-56
2023/04/07 08:09:10;;;;;;;21.48;12.80;;;8.50;99.90;;;;;;7281412;32;20221;-56
2023/04/07 08:13:12;;;;;;;23.45;13.95;;;8.50;99.90;;;;;;7289259;32;20135;-56
2023/04/07 08:17:13;;;;;;;27.08;16.30;;;8.60;99.90;;;;;;7288225;32;20215;-56
2023/04/07 08:21:15;;;;;;;27.50;15.85;;;8.60;99.90;;;;;;7287374;32;20112;-56
2023/04/07 08:25:18;;;;;;;26.10;16.37;;;8.60;99.90;;;;;;7289448;32;20111;-55
2023/04/07 08:29:20;;;;;;;25.62;16.73;;;8.50;99.90;;;;;;7287214;32;20663;-56
2023/04/07 08:33:21;;;;;;;27.08;17.48;;;8.50;99.90;;;;;;7288878;32;20203;-56
2023/04/07 08:37:23;;;;;;;26.73;16.33;;;8.50;99.90;;;;;;7283327;32;20108;-56
2023/04/07 08:41:41;;;;;;;27.58;16.48;;;8.50;99.90;;;;;;7284162;32;20175;-56
2023/04/07 08:45:45;;;;;;;30.62;17.73;;;8.60;99.90;;;;;;7280080;32;20104;-56
2023/04/07 08:49:50;;;;;;;28.02;16.12;;;8.50;99.90;;;;;;7278052;32;20200;-62
2023/04/07 08:53:56;;;;;;;25.10;16.37;;;8.60;99.90;;;;;;7268025;32;20165;-56
2023/04/07 08:57:58;;;;;;;28.05;15.77;;;8.70;99.90;;;;;;7287640;32;20560;-56
2023/04/07 09:02:04;;;;;;;28.45;16.42;;;8.70;99.90;;;;;;7288710;32;20195;-56
2023/04/07 09:06:06;;;;;;;28.50;15.73;;;8.70;99.90;;;;;;7281412;32;20544;-55
2023/04/07 09:10:08;;;;;;;24.42;15.57;;;8.70;99.90;;;;;;7276475;32;20156;-56
2023/04/07 09:14:10;;;;;;;25.17;15.57;;;8.80;99.90;;;;;;7278458;32;20729;-55
2023/04/07 09:18:13;;;;;;;21.05;14.38;;;8.70;99.90;;;;;;7274608;32;20300;-56
2023/04/07 09:22:37;;;;;;;26.87;16.23;;;8.80;99.90;;;;;;7276284;32;20107;-56
2023/04/07 09:26:39;;;;;;;24.83;15.65;;;8.70;99.90;;;;;;7278711;32;20643;-56
2023/04/07 09:30:52;;;;;;;30.75;18.75;;;8.70;99.90;;;;;;7280749;32;20124;-56
2023/04/07 09:34:58;;;;;;;21.67;14.30;;;8.70;99.90;;;;;;7280145;32;20787;-56
2023/04/07 09:39:07;;;;;;;21.25;12.63;;;8.80;99.90;;;;;;7280372;32;20230;-56
2023/04/07 09:43:15;;;;;;;24.20;13.27;;;8.60;99.90;;;;;;7280343;32;20278;-57
2023/04/07 09:47:24;;;;;;;25.67;14.02;;;8.60;99.90;;;;;;7283988;32;20118;-55
2023/04/07 09:51:26;;;;;;;28.52;14.93;;;8.60;99.90;;;;;;7273698;32;20178;-56
2023/04/07 09:55:29;;;;;;;25.75;14.75;;;8.60;99.90;;;;;;7275872;32;20253;-56
2023/04/07 09:59:32;;;;;;;27.33;15.20;;;8.70;99.90;;;;;;7271131;32;20136;-56
2023/04/07 10:03:35;;;;;;;27.65;16.52;;;8.70;99.90;;;;;;7273987;32;20130;-56
2023/04/07 10:07:37;;;;;;;31.90;16.40;;;8.70;99.90;;;;;;7281007;32;20513;-56
2023/04/07 10:11:41;;;;;;;27.35;17.02;;;8.70;99.90;;;;;;7280216;32;20124;-56
2023/04/07 10:15:43;;;;;;;32.03;17.98;;;8.70;99.90;;;;;;7279871;32;20114;-56
2023/04/07 10:19:47;;;;;;;26.60;17.77;;;8.80;99.90;;;;;;7278219;32;20503;-56
2023/04/07 10:23:58;;;;;;;27.45;16.25;;;8.80;99.90;;;;;;7274146;32;20328;-60
2023/04/07 10:28:05;;;;;;;26.83;16.58;;;8.80;99.90;;;;;;7277049;32;20130;-55
2023/04/07 10:32:07;;;;;;;27.37;17.65;;;8.90;99.90;;;;;;7268966;32;20191;-55
2023/04/07 10:36:09;;;;;;;31.42;19.35;;;8.90;99.90;;;;;;7280135;32;20191;-56
2023/04/07 10:40:25;;;;;;;30.02;18.33;;;8.80;99.90;;;;;;7272859;32;20352;-56
2023/04/07 10:44:42;;;;;;;30.40;16.58;;;8.90;99.90;;;;;;7278585;32;20108;-57
2023/04/07 10:49:09;;;;;;;27.05;16.02;;;8.80;99.90;;;;;;7281734;32;20291;-56
2023/04/07 10:53:13;;;;;;;32.88;15.52;;;8.80;99.90;;;;;;7275057;32;20180;-57
2023/04/07 10:57:15;;;;;;;23.95;16.08;;;8.80;99.90;;;;;;7278029;32;20525;-56
2023/04/07 11:01:18;;;;;;;26.70;14.82;;;8.70;99.90;;;;;;7277065;32;20154;-56
2023/04/07 11:05:21;;;;;;;24.52;14.80;;;8.90;99.90;;;;;;7278754;32;20754;-56
2023/04/07 11:09:24;;;;;;;25.00;14.73;;;9.00;99.90;;;;;;7273240;32;20267;-56
2023/04/07 11:13:26;;;;;;;21.35;14.00;;;9.00;99.90;;;;;;7271780;32;20635;-56
2023/04/07 11:17:28;;;;;;;22.05;14.25;;;9.10;99.90;;;;;;7271072;32;20108;-57
2023/04/07 11:21:30;;;;;;;21.23;12.82;;;9.10;99.90;;;;;;7275231;32;20211;-57
2023/04/07 11:25:32;;;;;;;23.35;14.50;;;9.20;99.90;;;;;;7278743;32;20108;-56
2023/04/07 11:29:34;;;;;;;22.20;14.65;;;9.20;99.90;;;;;;7271499;32;20226;-56
2023/04/07 11:33:37;;;;;;;23.15;12.70;;;9.20;99.90;;;;;;7278041;32;20114;-57
2023/04/07 11:37:39;;;;;;;18.62;11.98;;;9.10;99.90;;;;;;7267069;32;20199;-56
2023/04/07 11:41:48;;;;;;;19.98;14.50;;;9.10;99.90;;;;;;7272785;32;21356;-56
2023/04/07 11:46:04;;;;;;;18.37;13.23;;;9.10;99.90;;;;;;7274530;32;20234;-56
2023/04/07 11:50:06;;;;;;;19.20;13.40;;;9.50;99.90;;;;;;7273631;32;20127;-57
2023/04/07 11:54:09;;;;;;;22.55;14.93;;;9.90;99.90;;;;;;7267360;32;20097;-56
2023/04/07 11:58:11;;;;;;;22.65;16.58;;;10.20;99.90;;;;;;7273603;32;20108;-57
2023/04/07 12:02:33;;;;;;;21.40;15.02;;;10.20;99.90;;;;;;7281211;32;20175;-56
2023/04/07 12:06:40;;;;;;;26.98;18.40;;;9.90;99.90;;;;;;7280244;32;20179;-55
2023/04/07 12:10:42;;;;;;;28.35;19.23;;;9.80;99.90;;;;;;7279989;32;20255;-57
2023/04/07 12:14:44;;;;;;;22.62;16.10;;;10.10;99.90;;;;;;7265687;32;20179;-57
2023/04/07 12:18:46;;;;;;;25.95;16.10;;;10.20;99.90;;;;;;7277560;32;20104;-56
2023/04/07 12:22:48;;;;;;;21.33;15.13;;;10.30;99.90;;;;;;7286509;32;20104;-57
2023/04/07 12:26:50;;;;;;;23.98;15.90;;;10.20;99.90;;;;;;7280522;32;20226;-57
2023/04/07 12:30:52;;;;;;;22.83;15.95;;;10.10;99.90;;;;;;7271565;32;20135;-57
2023/04/07 12:34:54;;;;;;;23.35;15.90;;;10.10;99.90;;;;;;7277687;32;20240;-56
2023/04/07 12:38:56;;;;;;;24.63;16.00;;;9.80;99.90;;;;;;7272271;32;20302;-56
2023/04/07 12:42:57;;;;;;;25.85;15.88;;;9.80;99.90;;;;;;7276056;32;20104;-59
2023/04/07 12:46:59;;;;;;;21.55;14.65;;;9.90;99.90;;;;;;7277812;32;20112;-59
2023/04/07 12:51:01;;;;;;;23.77;14.48;;;10.00;99.90;;;;;;7279434;32;20533;-55
2023/04/07 12:55:03;;;;;;;21.65;13.98;;;10.10;99.90;;;;;;7269707;32;20578;-56
2023/04/07 12:59:05;;;;;;;24.20;14.32;;;10.20;99.90;;;;;;7272908;32;20271;-56
2023/04/07 13:03:07;;;;;;;18.83;12.82;;;10.10;99.90;;;;;;7279745;32;20349;-55
2023/04/07 13:07:09;;;;;;;21.02;12.88;;;9.90;99.90;;;;;;7271475;32;20128;-58
2023/04/07 13:11:10;;;;;;;19.58;12.88;;;9.90;99.90;;;;;;7284551;32;20293;-56
2023/04/07 13:15:12;;;;;;;21.95;13.70;;;9.80;99.90;;;;;;7280436;32;20135;-56
2023/04/07 13:19:14;;;;;;;20.33;11.85;;;9.90;99.90;;;;;;7272628;32;20210;-56
2023/04/07 13:23:16;;;;;;;20.20;13.52;;;9.80;99.90;;;;;;7275903;32;20503;-56
2023/04/07 13:27:20;;;;;;;20.37;13.32;;;9.90;99.90;;;;;;7268784;32;20427;-57
2023/04/07 13:31:22;;;;;;;18.10;13.00;;;10.00;99.90;;;;;;7275523;32;20137;-56
2023/04/07 13:35:24;;;;;;;23.48;13.43;;;10.10;99.90;;;;;;7270945;32;20620;-57
2023/04/07 13:39:26;;;;;;;18.83;13.30;;;10.00;99.90;;;;;;7278479;32;20293;-57
2023/04/07 13:43:28;;;;;;;16.75;13.32;;;10.20;99.90;;;;;;7255020;32;20232;-58
2023/04/07 13:47:33;;;;;;;19.60;12.82;;;10.40;99.90;;;;;;7274703;32;20112;-57
2023/04/07 13:51:34;;;;;;;21.17;12.82;;;10.50;99.90;;;;;;7277801;32;20208;-57
2023/04/07 13:55:36;;;;;;;20.02;12.88;;;10.60;99.90;;;;;;7272411;32;20702;-56
2023/04/07 13:59:38;;;;;;;20.02;13.02;;;10.50;99.90;;;;;;7272804;32;20100;-57
2023/04/07 14:03:40;;;;;;;17.45;12.37;;;10.50;99.90;;;;;;7275591;32;20195;-57
2023/04/07 14:07:42;;;;;;;17.30;11.88;;;10.70;99.90;;;;;;7275158;32;20327;-57
2023/04/07 14:11:44;;;;;;;13.95;10.82;;;10.70;99.90;;;;;;7274783;32;20115;-56
2023/04/07 14:15:47;;;;;;;19.33;12.07;;;10.70;99.90;;;;;;7264672;32;20119;-57
2023/04/07 14:19:49;;;;;;;16.85;11.30;;;10.70;99.90;;;;;;7284498;32;20121;-56
2023/04/07 14:23:51;;;;;;;16.67;11.98;;;10.80;99.90;;;;;;7276788;32;20302;-56
2023/04/07 14:27:53;;;;;;;20.40;14.13;;;10.30;99.90;;;;;;7262159;32;20291;-56
2023/04/07 14:31:55;;;;;;;16.05;12.55;;;10.30;99.90;;;;;;7275319;32;20174;-57
2023/04/07 14:35:57;;;;;;;19.55;12.73;;;10.30;99.90;;;;;;7270373;32;20542;-56
2023/04/07 14:39:59;;;;;;;21.65;13.05;;;10.20;99.90;;;;;;7274081;32;20167;-57
2023/04/07 14:44:08;;;;;;;21.35;13.40;;;10.10;99.90;;;;;;7276333;32;20130;-57
2023/04/07 14:48:10;;;;;;;25.05;14.43;;;10.00;99.90;;;;;;7284236;32;20242;-57
2023/04/07 14:52:12;;;;;;;22.73;13.95;;;9.90;99.90;;;;;;7267326;32;20173;-56
2023/04/07 14:56:14;;;;;;;20.12;13.55;;;9.90;99.90;;;;;;7278289;32;20123;-56
2023/04/07 15:00:16;;;;;;;23.35;14.50;;;9.90;99.90;;;;;;7268091;32;20180;-56
2023/04/07 15:04:18;;;;;;;22.55;12.65;;;9.80;99.90;;;;;;7274242;32;20112;-56
2023/04/07 15:08:20;;;;;;;24.75;14.65;;;10.00;99.90;;;;;;7272751;32;20096;-56
2023/04/07 15:12:22;;;;;;;24.33;14.60;;;10.00;99.90;;;;;;7278585;32;20123;-57
2023/04/07 15:16:23;;;;;;;25.00;14.65;;;10.10;99.90;;;;;;7278563;32;20136;-56
2023/04/07 15:20:25;;;;;;;22.95;15.73;;;10.30;99.90;;;;;;7286699;32;20119;-57
2023/04/07 15:24:27;;;;;;;29.10;17.48;;;10.30;99.90;;;;;;7287025;32;20111;-58
2023/04/07 15:28:29;;;;;;;29.33;17.23;;;10.40;99.90;;;;;;7279563;32;20475;-57
2023/04/07 15:32:31;;;;;;;27.40;16.33;;;10.40;99.90;;;;;;7280273;32;20362;-58
2023/04/07 15:36:33;;;;;;;20.05;13.55;;;10.30;99.90;;;;;;7283257;32;20364;-57
2023/04/07 15:40:36;;;;;;;18.30;13.18;;;10.30;99.90;;;;;;7288723;32;20175;-57
2023/04/07 15:44:38;;;;;;;26.33;14.23;;;10.40;99.90;;;;;;7285345;32;20097;-57
2023/04/07 15:48:40;;;;;;;21.75;13.85;;;10.20;99.90;;;;;;7273709;32;20148;-58
2023/04/07 15:52:42;;;;;;;21.65;14.50;;;10.20;99.90;;;;;;7293121;32;20755;-57
2023/04/07 15:56:44;;;;;;;26.33;14.50;;;10.10;99.90;;;;;;7288681;32;20221;-57
2023/04/07 16:00:46;;;;;;;23.95;15.18;;;9.90;99.90;;;;;;7280948;32;20265;-57
2023/04/07 16:04:48;;;;;;;24.80;16.25;;;9.90;99.90;;;;;;7271636;32;20108;-57
2023/04/07 16:08:49;;;;;;;24.85;18.15;;;9.70;99.90;;;;;;7291806;32;20221;-58
2023/04/07 16:12:51;;;;;;;31.50;19.15;;;9.80;99.90;;;;;;7275089;32;20539;-58
2023/04/07 16:16:57;;;;;;;28.45;17.90;;;9.70;99.90;;;;;;7287741;32;20144;-57
2023/04/07 16:20:59;;;;;;;26.55;16.65;;;9.70;99.90;;;;;;7289851;32;20518;-57
2023/04/07 16:25:05;;;;;;;30.85;17.48;;;9.80;99.90;;;;;;7282354;32;20100;-57
2023/04/07 16:29:06;;;;;;;26.10;16.08;;;9.80;99.90;;;;;;7288851;32;20179;-57
2023/04/07 16:33:08;;;;;;;24.35;14.55;;;9.70;99.90;;;;;;7286608;32;20100;-58
2023/04/07 16:37:11;;;;;;;23.27;15.85;;;9.70;99.90;;;;;;7290975;32;20123;-57
2023/04/07 16:41:13;;;;;;;25.27;16.75;;;9.70;99.90;;;;;;7287718;32;20153;-57
2023/04/07 16:45:15;;;;;;;35.38;17.70;;;9.80;99.90;;;;;;7283686;32;20163;-57
2023/04/07 16:49:16;;;;;;;27.55;15.77;;;9.90;99.90;;;;;;7283806;32;20116;-57
2023/04/07 16:53:18;;;;;;;26.60;14.90;;;9.90;99.90;;;;;;7285976;32;20156;-57
2023/04/07 16:57:22;;;;;;;29.30;15.95;;;9.80;99.90;;;;;;7287568;32;20095;-57
2023/04/07 17:01:27;;;;;;;33.90;16.90;;;9.70;99.90;;;;;;7285659;32;20139;-57
2023/04/07 17:05:29;;;;;;;29.80;15.65;;;9.50;99.90;;;;;;7282801;32;20128;-57
2023/04/07 17:09:31;;;;;;;26.67;16.83;;;9.40;99.90;;;;;;7276395;32;20847;-56
2023/04/07 17:13:33;;;;;;;32.55;16.87;;;9.40;99.90;;;;;;7275825;32;20173;-57
2023/04/07 17:17:35;;;;;;;26.25;16.50;;;9.30;99.90;;;;;;7278090;32;20206;-57
2023/04/07 17:21:37;;;;;;;23.95;16.08;;;9.30;99.90;;;;;;7274830;32;20188;-56
2023/04/07 17:25:39;;;;;;;25.67;16.52;;;9.40;99.90;;;;;;7290713;32;20240;-56
2023/04/07 17:29:41;;;;;;;24.30;15.43;;;9.40;99.90;;;;;;7281538;32;20218;-56
2023/04/07 17:33:43;;;;;;;25.90;15.63;;;9.30;99.90;;;;;;7279396;32;20125;-56
2023/04/07 17:37:45;;;;;;;24.40;14.70;;;9.30;99.90;;;;;;7282854;32;20228;-56
2023/04/07 17:41:47;;;;;;;25.37;17.02;;;9.30;99.90;;;;;;7274483;32;20191;-55
2023/04/07 17:45:48;;;;;;;23.73;15.63;;;9.20;99.90;;;;;;7261947;32;20107;-57
2023/04/07 17:49:50;;;;;;;22.17;14.80;;;9.10;99.90;;;;;;7278926;32;20171;-57
2023/04/07 17:53:52;;;;;;;26.05;16.98;;;9.10;99.90;;;;;;7280183;32;20124;-56
2023/04/07 17:57:59;;;;;;;31.67;19.05;;;9.00;99.90;;;;;;7279360;32;20100;-55
2023/04/07 18:02:07;;;;;;;23.40;16.02;;;9.00;99.90;;;;;;7279436;32;20221;-57
2023/04/07 18:06:13;;;;;;;25.00;17.65;;;8.90;99.90;;;;;;7279113;32;20478;-56
2023/04/07 18:10:17;;;;;;;27.85;16.98;;;8.90;99.90;;;;;;7288259;32;20143;-56
2023/04/07 18:14:18;;;;;;;24.45;18.48;;;8.90;99.90;;;;;;7281650;32;20454;-56
2023/04/07 18:18:20;;;;;;;24.27;16.98;;;8.80;99.90;;;;;;7280171;32;20187;-56
2023/04/07 18:22:22;;;;;;;31.85;19.12;;;8.80;99.90;;;;;;7282216;32;20227;-61
2023/04/07 18:26:24;;;;;;;28.75;16.58;;;8.80;99.90;;;;;;7284916;32;20201;-59
2023/04/07 18:30:26;;;;;;;25.05;17.55;;;8.70;99.90;;;;;;7276679;32;20199;-56
2023/04/07 18:34:27;;;;;;;26.55;19.60;;;8.70;99.90;;;;;;7284865;32;20638;-56
2023/04/07 18:38:29;;;;;;;32.10;21.37;;;8.70;99.90;;;;;;7279862;32;20822;-56
2023/04/07 18:42:31;;;;;;;34.45;23.38;;;8.60;99.90;;;;;;7287560;32;20179;-56
2023/04/07 18:46:33;;;;;;;38.95;24.02;;;8.60;99.90;;;;;;7282451;32;20287;-56
2023/04/07 18:50:34;;;;;;;36.65;23.95;;;8.60;99.90;;;;;;7287275;32;20424;-56
2023/04/07 18:54:36;;;;;;;39.10;23.33;;;8.60;99.90;;;;;;7283091;32;20518;-56
2023/04/07 18:58:43;;;;;;;30.62;21.83;;;8.70;99.90;;;;;;7277085;32;20112;-58
2023/04/07 19:02:46;;;;;;;33.53;21.60;;;8.70;99.90;;;;;;7283274;32;20115;-56
2023/04/07 19:06:51;;;;;;;33.67;20.92;;;8.80;99.90;;;;;;7280557;32;20200;-57
2023/04/07 19:10:53;;;;;;;29.48;21.23;;;8.80;99.90;;;;;;7284236;32;20107;-56
2023/04/07 19:14:55;;;;;;;32.28;21.50;;;8.70;99.90;;;;;;7281214;32;20203;-56
2023/04/07 19:18:57;;;;;;;32.53;20.17;;;8.80;99.90;;;;;;7285567;32;20230;-56
2023/04/07 19:22:59;;;;;;;31.58;20.58;;;8.80;99.90;;;;;;7285451;32;20266;-56
2023/04/07 19:27:01;;;;;;;33.15;20.50;;;8.70;99.90;;;;;;7281969;32;20435;-55
2023/04/07 19:31:05;;;;;;;29.70;20.40;;;8.60;99.90;;;;;;7289713;32;20169;-54
2023/04/07 19:35:08;;;;;;;35.10;21.52;;;8.60;99.90;;;;;;7291486;32;20123;-55
2023/04/07 19:39:10;;;;;;;33.45;20.73;;;8.60;99.90;;;;;;7275041;32;20110;-55
2023/04/07 19:43:15;;;;;;;37.22;23.87;;;8.60;99.90;;;;;;7284427;32;20196;-55
2023/04/07 19:47:16;;;;;;;37.03;22.98;;;8.50;99.90;;;;;;7273215;32;20184;-55
2023/04/07 19:51:18;;;;;;;35.67;23.00;;;8.60;99.90;;;;;;7293603;32;20515;-55
2023/04/07 19:55:20;;;;;;;37.10;22.80;;;8.70;99.90;;;;;;7292745;32;20244;-55
2023/04/07 19:59:22;;;;;;;37.67;23.48;;;8.60;99.90;;;;;;7284320;32;20506;-55
2023/04/07 20:03:24;;;;;;;36.03;22.58;;;8.50;99.90;;;;;;7281059;32;20688;-55
2023/04/07 20:07:26;;;;;;;39.33;21.95;;;8.50;99.90;;;;;;7277120;32;20139;-55
2023/04/07 20:11:27;;;;;;;36.15;23.33;;;8.50;99.90;;;;;;7288022;32;20111;-55
2023/04/07 20:15:29;;;;;;;38.78;21.73;;;8.60;99.90;;;;;;7283165;32;20130;-55
2023/04/07 20:19:31;;;;;;;39.00;23.40;;;8.50;99.90;;;;;;7277625;32;20220;-55
2023/04/07 20:23:33;;;;;;;40.88;23.67;;;8.60;99.90;;;;;;7283882;32;20821;-55
2023/04/07 20:27:35;;;;;;;35.25;22.20;;;8.60;99.90;;;;;;7285537;32;20560;-55
2023/04/07 20:31:37;;;;;;;36.72;21.37;;;8.60;99.90;;;;;;7278921;32;20184;-55
2023/04/07 20:35:39;;;;;;;35.92;22.65;;;8.50;99.90;;;;;;7275738;32;20214;-55
2023/04/07 20:39:41;;;;;;;32.03;21.40;;;8.40;99.90;;;;;;7274989;32;20279;-55
2023/04/07 20:43:42;;;;;;;37.58;22.70;;;8.50;99.90;;;;;;7279715;32;20162;-55
2023/04/07 20:47:44;;;;;;;32.85;21.85;;;8.50;99.90;;;;;;7281553;32;21119;-55